createdAt,value
2022-11-05T00:02:52.333Z,101009.41
2022-11-05T00:05:56.284Z,101001.75
2022-11-05T00:09:00.440Z,100991.38
2022-11-05T00:12:04.521Z,100984.44
2022-11-05T00:15:08.553Z,100983.56
2022-11-05T00:17:54.311Z,100977.47
2022-11-05T00:20:39.869Z,100980.06
2022-11-05T00:23:44.113Z,100975.72
2022-11-05T00:26:31.539Z,100971.38
2022-11-05T00:29:17.001Z,100963.63
2022-11-05T00:32:02.703Z,100961.94
2022-11-05T00:34:48.239Z,100948.97
2022-11-05T00:37:34.022Z,100940.41
2022-11-05T00:40:19.949Z,100940.44
2022-11-05T00:43:23.789Z,100937.91
2022-11-05T00:46:09.888Z,100937.91
2022-11-05T00:49:13.805Z,100941.38
2022-11-05T00:52:17.905Z,100938.78
2022-11-05T00:55:03.787Z,100936.16
2022-11-05T00:57:49.698Z,100931.81
2022-11-05T01:00:38.151Z,100927.41
2022-11-05T01:03:27.520Z,100936.97
2022-11-05T01:06:16.214Z,100936.94
2022-11-05T01:09:01.880Z,100936.91
2022-11-05T01:11:47.224Z,100930.81
2022-11-05T01:14:32.606Z,100929.03
2022-11-05T01:17:18.170Z,100924.66
2022-11-05T01:20:04.313Z,100921.16
2022-11-05T01:22:49.483Z,100915.94
2022-11-05T01:25:35.429Z,100915.94
2022-11-05T01:28:20.728Z,100921.09
2022-11-05T01:31:06.221Z,100925.41
2022-11-05T01:33:51.959Z,100928.91
2022-11-05T01:36:37.389Z,100924.56
2022-11-05T01:39:22.675Z,100929.78
2022-11-05T01:42:19.058Z,100917.63
2022-11-05T01:45:07.502Z,100908.94
2022-11-05T01:48:19.548Z,100909.78
2022-11-05T01:51:08.980Z,100894.97
2022-11-05T01:54:02.957Z,100894.97
2022-11-05T01:56:54.762Z,100885.53
2022-11-05T01:59:44.189Z,100890.75
2022-11-05T02:02:31.514Z,100889.94
2022-11-05T02:05:17.896Z,100890.78
2022-11-05T02:08:05.278Z,100885.59
2022-11-05T02:10:50.935Z,100885.59
2022-11-05T02:13:36.850Z,100876.91
2022-11-05T02:16:37.541Z,100878.63
2022-11-05T02:19:53.783Z,100881.28
2022-11-05T02:22:51.339Z,100878.69
2022-11-05T02:26:10.608Z,100863.91
2022-11-05T02:29:42.415Z,100861.31
2022-11-05T02:32:52.566Z,100849.16
2022-11-05T02:35:50.684Z,100849.13
2022-11-05T02:38:45.120Z,100843.94
2022-11-05T02:41:34.340Z,100847.38
2022-11-05T02:44:20.158Z,100847.38
2022-11-05T02:47:44.234Z,100825.72
2022-11-05T02:50:32.644Z,100819.63
2022-11-05T02:53:35.029Z,100805.72
2022-11-05T02:56:27.012Z,100800.50
2022-11-05T02:59:12.676Z,100782.31
2022-11-05T03:01:59.971Z,100778.91
2022-11-05T03:04:45.699Z,100765.84
2022-11-05T03:07:56.275Z,100756.34
2022-11-05T03:10:49.244Z,100746.75
2022-11-05T03:14:11.108Z,100736.34
2022-11-05T03:17:33.574Z,100731.13
2022-11-05T03:20:23.772Z,100735.44
2022-11-05T03:23:25.648Z,100718.97
2022-11-05T03:26:28.793Z,100708.56
2022-11-05T03:29:22.293Z,100710.28
2022-11-05T03:32:10.007Z,100699.03
2022-11-05T03:35:01.438Z,100683.44
2022-11-05T03:37:51.740Z,100678.28
2022-11-05T03:40:39.593Z,100657.47
2022-11-05T03:43:30.606Z,100641.00
2022-11-05T03:46:23.238Z,100641.00
2022-11-05T03:49:16.305Z,100633.19
2022-11-05T03:52:12.243Z,100631.44
2022-11-05T03:54:57.921Z,100628.84
2022-11-05T03:57:49.735Z,100628.00
2022-11-05T04:00:35.487Z,100614.09
2022-11-05T04:03:20.718Z,100617.59
2022-11-05T04:06:26.704Z,100626.25
2022-11-05T04:09:30.736Z,100623.66
2022-11-05T04:12:34.876Z,100615.00
2022-11-05T04:15:20.405Z,100610.66
2022-11-05T04:18:05.671Z,100593.31
2022-11-05T04:21:09.674Z,100589.84
2022-11-05T04:24:11.323Z,100586.38
2022-11-05T04:26:56.788Z,100575.09
2022-11-05T04:30:00.755Z,100568.19
2022-11-05T04:33:04.149Z,100549.09
2022-11-05T04:35:49.767Z,100533.50
2022-11-05T04:38:35.280Z,100533.50
2022-11-05T04:41:20.696Z,100511.84
2022-11-05T04:44:05.988Z,100511.81
2022-11-05T04:46:51.322Z,100507.47
2022-11-05T04:49:36.696Z,100492.78
2022-11-05T04:52:22.084Z,100510.97
2022-11-05T04:55:08.510Z,100502.28
2022-11-05T04:57:55.081Z,100494.47
2022-11-05T05:00:40.792Z,100496.25
2022-11-05T05:03:26.230Z,100485.00
2022-11-05T05:06:11.687Z,100484.16
2022-11-05T05:08:57.185Z,100479.81
2022-11-05T05:11:42.800Z,100469.41
2022-11-05T05:14:28.679Z,100467.66
2022-11-05T05:17:14.032Z,100467.69
2022-11-05T05:20:18.159Z,100457.28
2022-11-05T05:23:04.183Z,100454.69
2022-11-05T05:25:49.825Z,100446.03
2022-11-05T05:28:35.242Z,100441.66
2022-11-05T05:31:21.800Z,100433.88
2022-11-05T05:34:11.084Z,100413.94
2022-11-05T05:36:56.773Z,100413.03
2022-11-05T05:39:42.191Z,100410.47
2022-11-05T05:42:27.900Z,100395.69
2022-11-05T05:45:13.291Z,100401.78
2022-11-05T05:47:58.576Z,100400.03
2022-11-05T05:50:43.987Z,100393.97
2022-11-05T05:53:30.652Z,100394.81
2022-11-05T05:56:19.342Z,100398.31
2022-11-05T05:59:05.856Z,100383.53
2022-11-05T06:01:51.399Z,100378.28
2022-11-05T06:04:36.759Z,100378.31
2022-11-05T06:07:22.118Z,100378.31
2022-11-05T06:10:07.767Z,100369.63
2022-11-05T06:12:53.421Z,100379.16
2022-11-05T06:15:38.753Z,100379.97
2022-11-05T06:18:24.283Z,100379.03
2022-11-05T06:21:15.487Z,100372.00
2022-11-05T06:24:02.409Z,100367.63
2022-11-05T06:26:47.673Z,100373.69
2022-11-05T06:29:33.163Z,100352.81
2022-11-05T06:32:18.454Z,100338.84
2022-11-05T06:35:03.907Z,100337.94
2022-11-05T06:37:49.443Z,100340.53
2022-11-05T06:40:34.900Z,100336.16
2022-11-05T06:43:23.425Z,100330.00
2022-11-05T06:46:11.205Z,100329.88
2022-11-05T06:48:56.616Z,100327.25
2022-11-05T06:51:42.203Z,100311.53
2022-11-05T06:54:27.815Z,100308.09
2022-11-05T06:57:13.414Z,100296.72
2022-11-05T07:00:03.283Z,100304.53
2022-11-05T07:02:51.933Z,100296.69
2022-11-05T07:05:45.228Z,100287.09
2022-11-05T07:08:32.646Z,100274.03
2022-11-05T07:11:17.873Z,100283.53
2022-11-05T07:14:03.281Z,100275.59
2022-11-05T07:16:48.810Z,100274.59
2022-11-05T07:19:34.893Z,100262.34
2022-11-05T07:22:20.487Z,100254.50
2022-11-05T07:25:06.718Z,100258.75
2022-11-05T07:27:52.928Z,100257.84
2022-11-05T07:30:38.589Z,100267.41
2022-11-05T07:33:24.277Z,100263.84
2022-11-05T07:36:10.210Z,100263.84
2022-11-05T07:39:00.146Z,100269.88
2022-11-05T07:41:46.234Z,100254.97
2022-11-05T07:44:31.795Z,100246.13
2022-11-05T07:47:17.325Z,100253.03
2022-11-05T07:50:02.609Z,100236.44
2022-11-05T07:52:48.825Z,100229.47
2022-11-05T07:55:34.952Z,100218.16
2022-11-05T07:58:20.443Z,100235.53
2022-11-05T08:01:07.360Z,100224.22
2022-11-05T08:03:52.867Z,100240.72
2022-11-05T08:06:38.327Z,100231.84
2022-11-05T08:09:23.993Z,100225.69
2022-11-05T08:12:09.427Z,100230.00
2022-11-05T08:14:54.703Z,100236.97
2022-11-05T08:17:40.125Z,100238.69
2022-11-05T08:20:25.718Z,100225.53
2022-11-05T08:23:11.738Z,100228.09
2022-11-05T08:25:58.523Z,100215.00
2022-11-05T08:28:44.003Z,100204.44
2022-11-05T08:31:31.117Z,100209.59
2022-11-05T08:34:16.747Z,100219.13
2022-11-05T08:37:02.413Z,100219.84
2022-11-05T08:39:48.030Z,100218.88
2022-11-05T08:42:33.382Z,100212.72
2022-11-05T08:45:18.720Z,100211.81
2022-11-05T08:48:13.235Z,100208.25
2022-11-05T08:51:00.495Z,100215.09
2022-11-05T08:53:46.191Z,100220.28
2022-11-05T08:56:31.606Z,100220.97
2022-11-05T08:59:17.025Z,100235.75
2022-11-05T09:02:02.473Z,100237.47
2022-11-05T09:04:48.241Z,100238.31
2022-11-05T09:07:34.001Z,100247.00
2022-11-05T09:10:19.453Z,100240.88
2022-11-05T09:13:05.656Z,100242.56
2022-11-05T09:15:51.534Z,100249.47
2022-11-05T09:18:39.044Z,100254.59
2022-11-05T09:21:24.893Z,100251.94
2022-11-05T09:24:11.303Z,100260.56
2022-11-05T09:26:56.902Z,100264.03
2022-11-05T09:29:42.698Z,100273.66
2022-11-05T09:32:28.195Z,100271.13
2022-11-05T09:35:13.710Z,100276.50
2022-11-05T09:38:01.081Z,100276.53
2022-11-05T09:41:01.106Z,100274.88
2022-11-05T09:43:58.663Z,100276.63
2022-11-05T09:46:47.683Z,100273.16
2022-11-05T09:49:48.641Z,100274.06
2022-11-05T09:52:34.986Z,100287.22
2022-11-05T09:55:33.025Z,100286.47
2022-11-05T09:58:37.154Z,100296.13
2022-11-05T10:01:27.251Z,100284.91
2022-11-05T10:04:23.772Z,100301.53
2022-11-05T10:07:15.915Z,100291.34
2022-11-05T10:10:04.530Z,100274.03
2022-11-05T10:12:58.746Z,100287.28
2022-11-05T10:15:54.079Z,100282.16
2022-11-05T10:18:47.364Z,100271.75
2022-11-05T10:22:04.313Z,100277.94
2022-11-05T10:24:42.819Z,100286.63
2022-11-05T10:27:33.381Z,100298.66
2022-11-05T10:30:19.864Z,100274.03
2022-11-05T10:33:06.998Z,100273.00
2022-11-05T10:35:58.197Z,100258.03
2022-11-05T10:38:43.926Z,100271.81
2022-11-05T10:41:37.612Z,100276.19
2022-11-05T10:44:41.991Z,100256.97
2022-11-05T10:48:05.460Z,100257.84
2022-11-05T10:50:50.809Z,100266.72
2022-11-05T10:53:41.556Z,100280.03
2022-11-05T10:56:39.410Z,100280.22
2022-11-05T10:59:27.323Z,100275.16
2022-11-05T11:02:25.980Z,100281.34
2022-11-05T11:05:20.782Z,100275.25
2022-11-05T11:08:09.106Z,100278.56
2022-11-05T11:11:01.239Z,100266.34
2022-11-05T11:13:59.097Z,100264.56
2022-11-05T11:16:46.923Z,100286.31
2022-11-05T11:19:36.153Z,100287.13
2022-11-05T11:22:22.251Z,100284.38
2022-11-05T11:25:25.069Z,100298.25
2022-11-05T11:28:19.889Z,100310.56
2022-11-05T11:31:14.257Z,100277.56
2022-11-05T11:34:06.078Z,100300.22
2022-11-05T11:36:56.007Z,100304.78
2022-11-05T11:39:47.143Z,100307.50
2022-11-05T11:42:36.767Z,100291.91
2022-11-05T11:45:33.929Z,100298.75
2022-11-05T11:48:25.032Z,100303.78
2022-11-05T11:51:19.059Z,100291.38
2022-11-05T11:54:05.585Z,100297.28
2022-11-05T11:56:50.969Z,100302.50
2022-11-05T12:00:02.375Z,100283.47
2022-11-05T12:03:04.179Z,100279.19
2022-11-05T12:05:52.878Z,100279.22
2022-11-05T12:09:03.436Z,100287.03
2022-11-05T12:12:14.562Z,100277.47
2022-11-05T12:15:15.412Z,100275.91
2022-11-05T12:18:07.589Z,100275.94
2022-11-05T12:20:57.947Z,100277.78
2022-11-05T12:23:59.303Z,100264.69
2022-11-05T12:26:59.064Z,100269.75
2022-11-05T12:30:02.839Z,100276.66
2022-11-05T12:32:58.867Z,100272.16
2022-11-05T12:36:26.707Z,100282.44
2022-11-05T12:39:51.053Z,100275.31
2022-11-05T12:43:18.476Z,100279.56
2022-11-05T12:46:22.236Z,100267.31
2022-11-05T12:49:25.455Z,100277.75
2022-11-05T12:52:16.814Z,100274.47
2022-11-05T12:55:19.454Z,100264.88
2022-11-05T12:58:10.451Z,100276.31
2022-11-05T13:01:02.455Z,100278.94
2022-11-05T13:03:55.172Z,100278.13
2022-11-05T13:06:46.753Z,100281.56
2022-11-05T13:09:43.841Z,100286.75
2022-11-05T13:12:33.333Z,100289.34
2022-11-05T13:15:27.884Z,100280.56
2022-11-05T13:18:52.330Z,100288.38
2022-11-05T13:21:39.479Z,100281.41
2022-11-05T13:24:31.152Z,100285.72
2022-11-05T13:27:44.184Z,100284.78
2022-11-05T13:30:37.706Z,100285.59
2022-11-05T13:33:27.608Z,100278.53
2022-11-05T13:36:52.506Z,100272.53
2022-11-05T13:39:58.311Z,100280.50
2022-11-05T13:43:25.652Z,100280.78
2022-11-05T13:46:16.867Z,100275.66
2022-11-05T13:49:53.275Z,100278.16
2022-11-05T13:53:10.101Z,100278.91
2022-11-05T13:56:02.151Z,100286.50
2022-11-05T13:59:10.806Z,100281.88
2022-11-05T14:02:00.987Z,100273.16
2022-11-05T14:05:00.524Z,100270.47
2022-11-05T14:07:48.051Z,100275.84
2022-11-05T14:10:45.898Z,100275.91
2022-11-05T14:13:42.354Z,100277.66
2022-11-05T14:16:52.129Z,100276.69
2022-11-05T14:20:05.729Z,100269.53
2022-11-05T14:22:52.012Z,100273.63
2022-11-05T14:25:37.397Z,100274.13
2022-11-05T14:28:34.891Z,100266.25
2022-11-05T14:31:20.204Z,100266.78
2022-11-05T14:34:11.523Z,100271.97
2022-11-05T14:37:12.683Z,100265.00
2022-11-05T14:40:21.124Z,100278.97
2022-11-05T14:43:22.020Z,100270.56
2022-11-05T14:46:07.924Z,100272.41
2022-11-05T14:49:05.204Z,100271.88
2022-11-05T14:51:57.915Z,100274.84
2022-11-05T14:54:53.914Z,100280.19
2022-11-05T14:57:42.301Z,100278.63
2022-11-05T15:00:36.609Z,100290.97
2022-11-05T15:03:32.727Z,100281.53
2022-11-05T15:06:37.190Z,100276.53
2022-11-05T15:09:32.291Z,100283.72
2022-11-05T15:12:24.757Z,100280.41
2022-11-05T15:15:21.395Z,100274.47
2022-11-05T15:18:30.635Z,100290.28
2022-11-05T15:21:18.660Z,100293.03
2022-11-05T15:24:04.769Z,100291.38
2022-11-05T15:27:28.188Z,100301.06
2022-11-05T15:30:19.523Z,100291.50
2022-11-05T15:33:21.076Z,100291.50
2022-11-05T15:36:30.142Z,100298.44
2022-11-05T15:39:30.123Z,100296.63
2022-11-05T15:42:18.824Z,100289.69
2022-11-05T15:45:04.680Z,100288.88
2022-11-05T15:47:50.028Z,100300.25
2022-11-05T15:50:35.399Z,100292.53
2022-11-05T15:54:08.261Z,100288.34
2022-11-05T15:56:51.241Z,100291.16
2022-11-05T15:59:37.484Z,100292.13
2022-11-05T16:02:28.930Z,100299.22
2022-11-05T16:05:15.200Z,100299.34
2022-11-05T16:08:04.303Z,100296.84
2022-11-05T16:10:52.373Z,100298.66
2022-11-05T16:13:42.137Z,100299.66
2022-11-05T16:16:34.009Z,100311.91
2022-11-05T16:19:49.583Z,100308.59
2022-11-05T16:22:45.736Z,100311.31
2022-11-05T16:25:38.107Z,100314.88
2022-11-05T16:28:29.303Z,100324.50
2022-11-05T16:31:14.539Z,100321.09
2022-11-05T16:34:00.185Z,100323.75
2022-11-05T16:36:45.812Z,100332.44
2022-11-05T16:39:31.588Z,100334.13
2022-11-05T16:42:23.050Z,100341.94
2022-11-05T16:45:13.795Z,100341.91
2022-11-05T16:47:59.024Z,100353.16
2022-11-05T16:50:45.312Z,100343.63
2022-11-05T16:53:30.631Z,100361.81
2022-11-05T16:56:19.503Z,100359.16
2022-11-05T16:59:04.942Z,100363.44
2022-11-05T17:01:55.569Z,100364.34
2022-11-05T17:04:41.639Z,100371.22
2022-11-05T17:07:26.983Z,100368.56
2022-11-05T17:10:12.401Z,100366.78
2022-11-05T17:12:57.835Z,100367.63
2022-11-05T17:15:45.501Z,100371.94
2022-11-05T17:18:31.287Z,100370.16
2022-11-05T17:21:16.598Z,100380.47
2022-11-05T17:24:01.936Z,100386.56
2022-11-05T17:26:47.420Z,100390.00
2022-11-05T17:29:32.703Z,100381.38
2022-11-05T17:32:17.945Z,100379.59
2022-11-05T17:35:03.791Z,100383.00
2022-11-05T17:37:49.634Z,100391.56
2022-11-05T17:40:36.394Z,100400.28
2022-11-05T17:43:22.224Z,100399.41
2022-11-05T17:46:09.377Z,100395.06
2022-11-05T17:48:55.303Z,100383.75
2022-11-05T17:51:40.856Z,100381.16
2022-11-05T17:54:26.397Z,100382.84
2022-11-05T17:57:11.954Z,100388.81
2022-11-05T17:59:57.366Z,100388.84
2022-11-05T18:02:43.182Z,100388.81
2022-11-05T18:05:30.509Z,100383.63
2022-11-05T18:08:16.728Z,100383.72
2022-11-05T18:11:02.481Z,100382.88
2022-11-05T18:13:48.314Z,100378.38
2022-11-05T18:16:33.966Z,100367.16
2022-11-05T18:19:19.620Z,100364.44
2022-11-05T18:22:05.234Z,100366.16
2022-11-05T18:24:50.859Z,100360.16
2022-11-05T18:27:36.661Z,100365.16
2022-11-05T18:30:22.137Z,100360.75
2022-11-05T18:33:08.156Z,100353.78
2022-11-05T18:35:53.409Z,100351.19
2022-11-05T18:38:38.952Z,100348.47
2022-11-05T18:41:25.176Z,100336.25
2022-11-05T18:44:12.735Z,100337.91
2022-11-05T18:46:58.963Z,100331.91
2022-11-05T18:49:44.472Z,100333.66
2022-11-05T18:52:31.922Z,100337.16
2022-11-05T18:55:17.534Z,100328.50
2022-11-05T18:58:03.248Z,100329.31
2022-11-05T19:00:48.810Z,100326.88
2022-11-05T19:03:34.321Z,100328.72
2022-11-05T19:06:21.182Z,100327.72
2022-11-05T19:09:10.032Z,100313.16
2022-11-05T19:11:57.149Z,100300.97
2022-11-05T19:14:44.849Z,100299.19
2022-11-05T19:17:32.560Z,100294.81
2022-11-05T19:20:18.100Z,100291.25
2022-11-05T19:23:03.651Z,100287.81
2022-11-05T19:25:49.157Z,100287.84
2022-11-05T19:28:35.170Z,100288.53
2022-11-05T19:31:23.745Z,100285.16
2022-11-05T19:34:09.479Z,100271.19
2022-11-05T19:36:55.211Z,100273.88
2022-11-05T19:39:41.315Z,100278.19
2022-11-05T19:42:26.961Z,100289.41
2022-11-05T19:48:20.054Z,100286.13
2022-11-05T19:51:15.582Z,100280.19
2022-11-05T19:54:02.675Z,100268.97
2022-11-05T19:56:50.066Z,100279.41
2022-11-05T19:59:35.604Z,100267.38
2022-11-05T20:02:21.146Z,100261.41
2022-11-05T20:05:07.063Z,100262.28
2022-11-05T20:07:53.348Z,100262.28
2022-11-05T20:10:38.896Z,100261.38
2022-11-05T20:13:24.763Z,100263.97
2022-11-05T20:16:27.888Z,100270.03
2022-11-05T20:19:16.667Z,100260.56
2022-11-05T20:22:02.296Z,100264.09
2022-11-05T20:24:47.979Z,100259.75
2022-11-05T20:27:33.351Z,100257.25
2022-11-05T20:30:19.971Z,100249.53
2022-11-05T20:33:05.403Z,100244.38
2022-11-05T20:35:51.138Z,100246.19
2022-11-05T20:38:36.609Z,100235.88
2022-11-05T20:41:22.943Z,100230.78
2022-11-05T20:44:08.468Z,100233.41
2022-11-05T20:46:53.977Z,100224.84
2022-11-05T20:49:39.416Z,100226.66
2022-11-05T20:52:24.594Z,100211.97
2022-11-05T20:55:10.467Z,100197.25
2022-11-05T20:57:55.976Z,100179.00
2022-11-05T21:00:49.352Z,100177.25
2022-11-05T21:03:34.827Z,100173.75
2022-11-05T21:06:20.293Z,100156.38
2022-11-05T21:09:06.269Z,100145.91
2022-11-05T21:12:10.223Z,100151.94
2022-11-05T21:14:56.091Z,100146.66
2022-11-05T21:17:41.659Z,100140.56
2022-11-05T21:20:27.208Z,100136.22
2022-11-05T21:23:13.433Z,100125.75
2022-11-05T21:25:58.842Z,100124.03
2022-11-05T21:28:44.352Z,100132.72
2022-11-05T21:31:30.165Z,100127.50
2022-11-05T21:34:16.775Z,100115.38
2022-11-05T21:37:02.495Z,100112.78
2022-11-05T21:39:47.923Z,100111.91
2022-11-05T21:42:33.241Z,100122.28
2022-11-05T21:45:18.761Z,100122.34
2022-11-05T21:48:04.595Z,100104.09
2022-11-05T21:51:12.871Z,100098.06
2022-11-05T21:54:17.392Z,100095.53
2022-11-05T21:57:21.541Z,100090.31
2022-11-05T22:00:09.586Z,100084.25
2022-11-05T22:02:55.161Z,100093.78
2022-11-05T22:05:41.259Z,100083.38
2022-11-05T22:08:27.444Z,100080.78
2022-11-05T22:11:13.144Z,100081.63
2022-11-05T22:13:58.507Z,100072.09
2022-11-05T22:16:43.949Z,100064.28
2022-11-05T22:19:29.629Z,100054.72
2022-11-05T22:22:15.289Z,100050.31
2022-11-05T22:25:00.997Z,100048.63
2022-11-05T22:27:46.396Z,100049.50
2022-11-05T22:30:35.560Z,100046.06
2022-11-05T22:33:21.467Z,100044.38
2022-11-05T22:36:07.879Z,100040.03
2022-11-05T22:38:53.661Z,100032.16
2022-11-05T22:41:40.240Z,100029.53
2022-11-05T22:44:27.271Z,100020.81
2022-11-05T22:47:14.203Z,100023.38
2022-11-05T22:49:59.883Z,100030.28
2022-11-05T22:52:45.369Z,100027.66
2022-11-05T22:55:30.856Z,100012.88
2022-11-05T22:58:16.322Z,100019.81
2022-11-05T23:01:02.470Z,100010.25
2022-11-05T23:03:49.399Z,100010.22
2022-11-05T23:06:53.015Z,99997.16
2022-11-05T23:09:57.868Z,100002.38
2022-11-05T23:12:44.603Z,99994.53
2022-11-05T23:15:48.752Z,99991.91
2022-11-05T23:18:54.658Z,99984.94
2022-11-05T23:21:58.938Z,99985.78
2022-11-05T23:24:44.614Z,99976.19
2022-11-05T23:27:32.340Z,99971.81
2022-11-05T23:30:21.143Z,99963.97
2022-11-05T23:33:06.535Z,99964.00
2022-11-05T23:36:10.282Z,99958.81
2022-11-05T23:38:56.018Z,99953.72
2022-11-05T23:42:00.092Z,99952.13
2022-11-05T23:45:15.010Z,99948.78
2022-11-05T23:48:18.879Z,99934.09
2022-11-05T23:51:05.950Z,99929.81
2022-11-05T23:53:51.204Z,99925.47
2022-11-05T23:56:36.685Z,99913.41
2022-11-05T23:59:22.214Z,99913.53
